sensor_id;sensor_type;location;lat;lon;timestamp;P1;durP1;ratioP1;P2;durP2;ratioP2
4428;SDS011;2227;47.810;8.810;2023-09-07T03:50:09;6.10;;;3.75;;
4428;SDS011;2227;47.810;8.810;2023-09-07T03:52:36;5.07;;;3.80;;
4428;SDS011;2227;47.810;8.810;2023-09-07T03:55:03;4.97;;;3.25;;
4428;SDS011;2227;47.810;8.810;2023-09-07T03:57:30;5.57;;;3.80;;
4428;SDS011;2227;47.810;8.810;2023-09-07T03:59:57;5.47;;;3.60;;
4428;SDS011;2227;47.810;8.810;2023-09-07T04:02:24;8.00;;;3.85;;
4428;SDS011;2227;47.810;8.810;2023-09-07T04:04:52;7.43;;;3.92;;
4428;SDS011;2227;47.810;8.810;2023-09-07T04:07:21;6.13;;;3.75;;
4428;SDS011;2227;47.810;8.810;2023-09-07T04:09:50;5.68;;;3.95;;
4428;SDS011;2227;47.810;8.810;2023-09-07T04:12:16;7.00;;;3.75;;
4428;SDS011;2227;47.810;8.810;2023-09-07T04:14:43;5.45;;;3.97;;
4428;SDS011;2227;47.810;8.810;2023-09-07T04:17:11;7.07;;;3.97;;
4428;SDS011;2227;47.810;8.810;2023-09-07T04:19:38;6.85;;;4.00;;
4428;SDS011;2227;47.810;8.810;2023-09-07T04:22:05;5.95;;;3.95;;
4428;SDS011;2227;47.810;8.810;2023-09-07T04:24:31;5.65;;;3.58;;
4428;SDS011;2227;47.810;8.810;2023-09-07T04:26:59;8.10;;;3.85;;
4428;SDS011;2227;47.810;8.810;2023-09-07T04:29:30;5.25;;;4.00;;
4428;SDS011;2227;47.810;8.810;2023-09-07T04:31:56;6.30;;;4.30;;
4428;SDS011;2227;47.810;8.810;2023-09-07T04:34:23;6.25;;;4.38;;
4428;SDS011;2227;47.810;8.810;2023-09-07T04:36:50;6.65;;;3.78;;
4428;SDS011;2227;47.810;8.810;2023-09-07T04:39:17;6.38;;;3.70;;
4428;SDS011;2227;47.810;8.810;2023-09-07T04:41:44;6.70;;;4.25;;
4428;SDS011;2227;47.810;8.810;2023-09-07T04:44:11;4.90;;;3.33;;
4428;SDS011;2227;47.810;8.810;2023-09-07T04:46:38;8.50;;;4.32;;
4428;SDS011;2227;47.810;8.810;2023-09-07T04:49:04;6.43;;;4.40;;
4428;SDS011;2227;47.810;8.810;2023-09-07T04:51:31;6.57;;;3.80;;
4428;SDS011;2227;47.810;8.810;2023-09-07T04:53:58;5.32;;;3.70;;
4428;SDS011;2227;47.810;8.810;2023-09-07T04:56:25;5.70;;;4.22;;
4428;SDS011;2227;47.810;8.810;2023-09-07T04:58:54;7.63;;;4.30;;
4428;SDS011;2227;47.810;8.810;2023-09-07T05:01:21;6.85;;;3.90;;
4428;SDS011;2227;47.810;8.810;2023-09-07T05:03:47;5.72;;;3.78;;
4428;SDS011;2227;47.810;8.810;2023-09-07T05:06:14;7.57;;;4.28;;
4428;SDS011;2227;47.810;8.810;2023-09-07T05:08:41;6.53;;;4.20;;
4428;SDS011;2227;47.810;8.810;2023-09-07T05:11:08;6.50;;;4.30;;
4428;SDS011;2227;47.810;8.810;2023-09-07T05:13:34;7.03;;;3.95;;
4428;SDS011;2227;47.810;8.810;2023-09-07T05:16:01;6.65;;;4.15;;
4428;SDS011;2227;47.810;8.810;2023-09-07T05:18:28;8.25;;;3.92;;
4428;SDS011;2227;47.810;8.810;2023-09-07T05:20:55;6.13;;;3.95;;
4428;SDS011;2227;47.810;8.810;2023-09-07T05:23:22;6.88;;;4.38;;
4428;SDS011;2227;47.810;8.810;2023-09-07T05:25:49;8.40;;;4.28;;
4428;SDS011;2227;47.810;8.810;2023-09-07T05:28:19;5.80;;;3.92;;
4428;SDS011;2227;47.810;8.810;2023-09-07T05:30:47;6.88;;;4.15;;
4428;SDS011;2227;47.810;8.810;2023-09-07T05:33:15;5.50;;;4.10;;
4428;SDS011;2227;47.810;8.810;2023-09-07T05:35:43;6.75;;;4.55;;
4428;SDS011;2227;47.810;8.810;2023-09-07T05:38:12;7.82;;;4.57;;
4428;SDS011;2227;47.810;8.810;2023-09-07T05:40:40;7.70;;;4.35;;
4428;SDS011;2227;47.810;8.810;2023-09-07T05:43:08;9.68;;;4.20;;
4428;SDS011;2227;47.810;8.810;2023-09-07T05:45:36;6.50;;;4.57;;
4428;SDS011;2227;47.810;8.810;2023-09-07T05:48:05;7.05;;;4.10;;
4428;SDS011;2227;47.810;8.810;2023-09-07T05:50:34;5.68;;;4.40;;
4428;SDS011;2227;47.810;8.810;2023-09-07T05:53:01;5.38;;;3.85;;
4428;SDS011;2227;47.810;8.810;2023-09-07T05:55:29;6.28;;;4.25;;
4428;SDS011;2227;47.810;8.810;2023-09-07T05:57:56;6.75;;;3.80;;
4428;SDS011;2227;47.810;8.810;2023-09-07T06:00:24;8.40;;;4.22;;
4428;SDS011;2227;47.810;8.810;2023-09-07T06:02:51;7.10;;;4.32;;
4428;SDS011;2227;47.810;8.810;2023-09-07T06:05:18;7.47;;;5.03;;
4428;SDS011;2227;47.810;8.810;2023-09-07T06:07:45;9.73;;;4.28;;
4428;SDS011;2227;47.810;8.810;2023-09-07T06:10:12;6.38;;;4.20;;
4428;SDS011;2227;47.810;8.810;2023-09-07T06:12:39;8.27;;;4.95;;
4428;SDS011;2227;47.810;8.810;2023-09-07T06:15:06;7.70;;;4.32;;
4428;SDS011;2227;47.810;8.810;2023-09-07T06:17:35;8.88;;;4.13;;
4428;SDS011;2227;47.810;8.810;2023-09-07T06:20:02;7.50;;;4.50;;
4428;SDS011;2227;47.810;8.810;2023-09-07T06:22:29;6.88;;;4.25;;
4428;SDS011;2227;47.810;8.810;2023-09-07T06:24:56;5.70;;;4.32;;
4428;SDS011;2227;47.810;8.810;2023-09-07T06:27:22;8.65;;;4.25;;
4428;SDS011;2227;47.810;8.810;2023-09-07T06:29:49;6.47;;;4.40;;
4428;SDS011;2227;47.810;8.810;2023-09-07T06:32:17;7.00;;;4.10;;
4428;SDS011;2227;47.810;8.810;2023-09-07T06:34:45;7.85;;;4.20;;
4428;SDS011;2227;47.810;8.810;2023-09-07T06:37:12;6.03;;;4.45;;
4428;SDS011;2227;47.810;8.810;2023-09-07T06:39:38;7.20;;;4.47;;
4428;SDS011;2227;47.810;8.810;2023-09-07T06:42:05;6.60;;;4.15;;
4428;SDS011;2227;47.810;8.810;2023-09-07T06:44:33;6.10;;;4.53;;
4428;SDS011;2227;47.810;8.810;2023-09-07T06:47:00;6.43;;;4.50;;
4428;SDS011;2227;47.810;8.810;2023-09-07T06:49:27;6.78;;;4.40;;
4428;SDS011;2227;47.810;8.810;2023-09-07T06:51:56;6.70;;;4.20;;
4428;SDS011;2227;47.810;8.810;2023-09-07T06:54:23;5.55;;;4.10;;
4428;SDS011;2227;47.810;8.810;2023-09-07T06:56:50;6.13;;;4.53;;
4428;SDS011;2227;47.810;8.810;2023-09-07T06:59:17;5.90;;;4.32;;
4428;SDS011;2227;47.810;8.810;2023-09-07T07:01:44;7.75;;;4.75;;
4428;SDS011;2227;47.810;8.810;2023-09-07T07:04:10;5.95;;;4.50;;
4428;SDS011;2227;47.810;8.810;2023-09-07T07:06:37;6.40;;;4.70;;
4428;SDS011;2227;47.810;8.810;2023-09-07T07:09:04;6.10;;;4.07;;
4428;SDS011;2227;47.810;8.810;2023-09-07T07:11:32;9.07;;;4.80;;
4428;SDS011;2227;47.810;8.810;2023-09-07T07:13:58;6.13;;;4.25;;
4428;SDS011;2227;47.810;8.810;2023-09-07T07:16:25;5.82;;;4.25;;
4428;SDS011;2227;47.810;8.810;2023-09-07T07:18:52;6.88;;;3.97;;
4428;SDS011;2227;47.810;8.810;2023-09-07T07:21:18;5.50;;;4.00;;
4428;SDS011;2227;47.810;8.810;2023-09-07T07:23:45;6.63;;;4.07;;
4428;SDS011;2227;47.810;8.810;2023-09-07T07:26:12;6.30;;;4.20;;
4428;SDS011;2227;47.810;8.810;2023-09-07T07:28:39;6.38;;;4.47;;
4428;SDS011;2227;47.810;8.810;2023-09-07T07:31:09;6.32;;;4.47;;
4428;SDS011;2227;47.810;8.810;2023-09-07T07:33:36;5.82;;;4.40;;
4428;SDS011;2227;47.810;8.810;2023-09-07T07:36:04;6.70;;;4.35;;
4428;SDS011;2227;47.810;8.810;2023-09-07T07:38:31;6.97;;;4.63;;
4428;SDS011;2227;47.810;8.810;2023-09-07T07:40:58;7.38;;;4.68;;
4428;SDS011;2227;47.810;8.810;2023-09-07T07:43:25;6.80;;;4.18;;
4428;SDS011;2227;47.810;8.810;2023-09-07T07:45:53;6.65;;;4.75;;
4428;SDS011;2227;47.810;8.810;2023-09-07T07:48:20;5.53;;;3.92;;
4428;SDS011;2227;47.810;8.810;2023-09-07T07:50:48;7.57;;;4.78;;
4428;SDS011;2227;47.810;8.810;2023-09-07T07:53:14;5.65;;;4.30;;
4428;SDS011;2227;47.810;8.810;2023-09-07T07:55:41;6.50;;;4.50;;
4428;SDS011;2227;47.810;8.810;2023-09-07T07:58:09;6.22;;;4.32;;
4428;SDS011;2227;47.810;8.810;2023-09-07T08:00:36;5.13;;;4.13;;
4428;SDS011;2227;47.810;8.810;2023-09-07T08:03:04;7.70;;;4.88;;
4428;SDS011;2227;47.810;8.810;2023-09-07T08:05:33;7.75;;;4.80;;
4428;SDS011;2227;47.810;8.810;2023-09-07T08:08:00;6.18;;;4.35;;
4428;SDS011;2227;47.810;8.810;2023-09-07T08:10:27;8.35;;;4.60;;
4428;SDS011;2227;47.810;8.810;2023-09-07T08:12:57;4.90;;;3.90;;
4428;SDS011;2227;47.810;8.810;2023-09-07T08:15:24;7.53;;;4.25;;
4428;SDS011;2227;47.810;8.810;2023-09-07T08:17:52;6.15;;;3.88;;
4428;SDS011;2227;47.810;8.810;2023-09-07T08:20:19;5.00;;;3.40;;
4428;SDS011;2227;47.810;8.810;2023-09-07T08:22:46;6.20;;;3.67;;
4428;SDS011;2227;47.810;8.810;2023-09-07T08:25:13;5.10;;;3.85;;
4428;SDS011;2227;47.810;8.810;2023-09-07T08:27:41;4.50;;;3.35;;
4428;SDS011;2227;47.810;8.810;2023-09-07T08:30:11;6.03;;;3.58;;
4428;SDS011;2227;47.810;8.810;2023-09-07T08:32:38;4.80;;;3.15;;
4428;SDS011;2227;47.810;8.810;2023-09-07T08:35:05;5.05;;;3.25;;
4428;SDS011;2227;47.810;8.810;2023-09-07T08:37:34;3.85;;;2.78;;
4428;SDS011;2227;47.810;8.810;2023-09-07T08:40:01;4.28;;;3.55;;
4428;SDS011;2227;47.810;8.810;2023-09-07T08:42:29;4.57;;;3.28;;
4428;SDS011;2227;47.810;8.810;2023-09-07T08:44:56;4.63;;;2.88;;
4428;SDS011;2227;47.810;8.810;2023-09-07T08:47:29;4.05;;;3.25;;
4428;SDS011;2227;47.810;8.810;2023-09-07T08:49:57;4.80;;;3.22;;
4428;SDS011;2227;47.810;8.810;2023-09-07T08:52:24;4.15;;;3.42;;
4428;SDS011;2227;47.810;8.810;2023-09-07T08:54:52;4.10;;;3.08;;
4428;SDS011;2227;47.810;8.810;2023-09-07T08:57:19;5.03;;;3.28;;
4428;SDS011;2227;47.810;8.810;2023-09-07T08:59:48;4.45;;;3.38;;
4428;SDS011;2227;47.810;8.810;2023-09-07T09:02:15;4.50;;;3.28;;
4428;SDS011;2227;47.810;8.810;2023-09-07T09:04:43;4.18;;;2.72;;
4428;SDS011;2227;47.810;8.810;2023-09-07T09:07:10;4.50;;;3.33;;
4428;SDS011;2227;47.810;8.810;2023-09-07T09:09:36;4.70;;;2.90;;
4428;SDS011;2227;47.810;8.810;2023-09-07T09:12:11;4.20;;;3.53;;
4428;SDS011;2227;47.810;8.810;2023-09-07T09:14:42;5.28;;;4.78;;
4428;SDS011;2227;47.810;8.810;2023-09-07T09:17:13;5.43;;;3.60;;
4428;SDS011;2227;47.810;8.810;2023-09-07T09:19:41;3.65;;;3.05;;
4428;SDS011;2227;47.810;8.810;2023-09-07T09:22:08;3.42;;;2.90;;
4428;SDS011;2227;47.810;8.810;2023-09-07T09:24:35;6.20;;;3.00;;
4428;SDS011;2227;47.810;8.810;2023-09-07T09:27:03;4.63;;;2.63;;
4428;SDS011;2227;47.810;8.810;2023-09-07T09:29:34;4.07;;;2.83;;
4428;SDS011;2227;47.810;8.810;2023-09-07T09:32:04;4.05;;;3.13;;
4428;SDS011;2227;47.810;8.810;2023-09-07T09:34:35;4.50;;;3.00;;
4428;SDS011;2227;47.810;8.810;2023-09-07T09:37:03;3.80;;;2.73;;
4428;SDS011;2227;47.810;8.810;2023-09-07T09:39:30;3.97;;;2.58;;
4428;SDS011;2227;47.810;8.810;2023-09-07T09:41:57;3.85;;;2.63;;
4428;SDS011;2227;47.810;8.810;2023-09-07T09:44:25;4.03;;;2.45;;
4428;SDS011;2227;47.810;8.810;2023-09-07T09:46:55;3.92;;;2.70;;
4428;SDS011;2227;47.810;8.810;2023-09-07T09:49:23;4.65;;;2.72;;
4428;SDS011;2227;47.810;8.810;2023-09-07T09:51:52;4.85;;;2.38;;
4428;SDS011;2227;47.810;8.810;2023-09-07T09:54:20;4.53;;;2.78;;
4428;SDS011;2227;47.810;8.810;2023-09-07T09:56:48;3.10;;;2.45;;
4428;SDS011;2227;47.810;8.810;2023-09-07T09:59:15;3.63;;;2.55;;
4428;SDS011;2227;47.810;8.810;2023-09-07T10:01:45;4.05;;;2.60;;
4428;SDS011;2227;47.810;8.810;2023-09-07T10:04:17;4.60;;;2.97;;
4428;SDS011;2227;47.810;8.810;2023-09-07T10:09:41;3.80;;;2.65;;
4428;SDS011;2227;47.810;8.810;2023-09-07T10:12:11;3.65;;;3.20;;
4428;SDS011;2227;47.810;8.810;2023-09-07T10:14:41;3.47;;;2.60;;
4428;SDS011;2227;47.810;8.810;2023-09-07T10:17:08;4.43;;;2.65;;
4428;SDS011;2227;47.810;8.810;2023-09-07T10:19:36;3.83;;;2.60;;
4428;SDS011;2227;47.810;8.810;2023-09-07T10:22:04;3.70;;;2.42;;
4428;SDS011;2227;47.810;8.810;2023-09-07T10:24:32;4.32;;;2.95;;
4428;SDS011;2227;47.810;8.810;2023-09-07T10:29:43;3.30;;;2.50;;
4428;SDS011;2227;47.810;8.810;2023-09-07T10:32:11;2.67;;;2.40;;
4428;SDS011;2227;47.810;8.810;2023-09-07T10:34:45;3.88;;;2.70;;
4428;SDS011;2227;47.810;8.810;2023-09-07T10:37:13;3.67;;;2.67;;
4428;SDS011;2227;47.810;8.810;2023-09-07T10:39:41;4.93;;;2.80;;
4428;SDS011;2227;47.810;8.810;2023-09-07T10:42:25;3.75;;;2.55;;
4428;SDS011;2227;47.810;8.810;2023-09-07T10:44:52;4.03;;;3.10;;
4428;SDS011;2227;47.810;8.810;2023-09-07T10:47:20;3.63;;;2.85;;
4428;SDS011;2227;47.810;8.810;2023-09-07T10:49:47;4.25;;;2.85;;
4428;SDS011;2227;47.810;8.810;2023-09-07T10:52:14;3.88;;;2.78;;
4428;SDS011;2227;47.810;8.810;2023-09-07T10:54:40;4.15;;;2.92;;
4428;SDS011;2227;47.810;8.810;2023-09-07T10:57:08;4.70;;;3.08;;
4428;SDS011;2227;47.810;8.810;2023-09-07T10:59:35;3.92;;;3.03;;
4428;SDS011;2227;47.810;8.810;2023-09-07T11:02:05;6.70;;;3.25;;
4428;SDS011;2227;47.810;8.810;2023-09-07T11:04:32;4.25;;;3.08;;
4428;SDS011;2227;47.810;8.810;2023-09-07T11:07:00;7.38;;;3.47;;
4428;SDS011;2227;47.810;8.810;2023-09-07T11:09:29;6.43;;;3.17;;
4428;SDS011;2227;47.810;8.810;2023-09-07T11:11:57;4.32;;;3.25;;
4428;SDS011;2227;47.810;8.810;2023-09-07T11:14:30;3.35;;;2.90;;
4428;SDS011;2227;47.810;8.810;2023-09-07T11:16:57;4.47;;;2.90;;
4428;SDS011;2227;47.810;8.810;2023-09-07T11:19:23;4.50;;;3.28;;
4428;SDS011;2227;47.810;8.810;2023-09-07T11:21:53;4.43;;;3.38;;
4428;SDS011;2227;47.810;8.810;2023-09-07T11:24:20;6.18;;;3.53;;
4428;SDS011;2227;47.810;8.810;2023-09-07T11:26:47;5.43;;;3.60;;
4428;SDS011;2227;47.810;8.810;2023-09-07T11:29:17;3.80;;;3.30;;
4428;SDS011;2227;47.810;8.810;2023-09-07T11:31:45;3.70;;;3.20;;
4428;SDS011;2227;47.810;8.810;2023-09-07T11:34:12;4.28;;;3.88;;
4428;SDS011;2227;47.810;8.810;2023-09-07T11:36:40;4.95;;;3.40;;
4428;SDS011;2227;47.810;8.810;2023-09-07T11:39:08;5.03;;;3.47;;
4428;SDS011;2227;47.810;8.810;2023-09-07T11:41:41;4.63;;;3.53;;
4428;SDS011;2227;47.810;8.810;2023-09-07T11:44:09;5.47;;;3.33;;
4428;SDS011;2227;47.810;8.810;2023-09-07T11:46:36;6.25;;;3.72;;
4428;SDS011;2227;47.810;8.810;2023-09-07T11:49:03;5.38;;;3.40;;
4428;SDS011;2227;47.810;8.810;2023-09-07T11:51:35;5.13;;;3.80;;
4428;SDS011;2227;47.810;8.810;2023-09-07T11:54:03;6.18;;;3.70;;
4428;SDS011;2227;47.810;8.810;2023-09-07T11:56:31;5.97;;;4.25;;
4428;SDS011;2227;47.810;8.810;2023-09-07T11:58:57;5.13;;;3.28;;
4428;SDS011;2227;47.810;8.810;2023-09-07T12:01:24;5.65;;;3.72;;
4428;SDS011;2227;47.810;8.810;2023-09-07T12:03:52;5.65;;;3.70;;
4428;SDS011;2227;47.810;8.810;2023-09-07T12:06:19;4.60;;;3.10;;
4428;SDS011;2227;47.810;8.810;2023-09-07T12:08:59;5.05;;;3.55;;
4428;SDS011;2227;47.810;8.810;2023-09-07T12:11:30;4.70;;;3.28;;
4428;SDS011;2227;47.810;8.810;2023-09-07T12:13:57;4.68;;;3.25;;
4428;SDS011;2227;47.810;8.810;2023-09-07T12:16:25;3.72;;;3.17;;
4428;SDS011;2227;47.810;8.810;2023-09-07T12:18:53;5.28;;;3.20;;
4428;SDS011;2227;47.810;8.810;2023-09-07T12:21:20;4.68;;;3.42;;
4428;SDS011;2227;47.810;8.810;2023-09-07T12:23:46;5.00;;;3.40;;
4428;SDS011;2227;47.810;8.810;2023-09-07T12:26:14;4.15;;;3.10;;
4428;SDS011;2227;47.810;8.810;2023-09-07T12:28:43;4.22;;;3.60;;
4428;SDS011;2227;47.810;8.810;2023-09-07T12:31:10;4.10;;;3.42;;
4428;SDS011;2227;47.810;8.810;2023-09-07T12:33:38;5.25;;;3.17;;
4428;SDS011;2227;47.810;8.810;2023-09-07T12:36:05;5.03;;;3.25;;
4428;SDS011;2227;47.810;8.810;2023-09-07T12:38:35;4.45;;;3.50;;
4428;SDS011;2227;47.810;8.810;2023-09-07T12:41:02;4.95;;;3.50;;
4428;SDS011;2227;47.810;8.810;2023-09-07T12:43:29;5.55;;;3.92;;
4428;SDS011;2227;47.810;8.810;2023-09-07T12:45:56;5.72;;;3.15;;
4428;SDS011;2227;47.810;8.810;2023-09-07T12:48:23;7.32;;;3.60;;
4428;SDS011;2227;47.810;8.810;2023-09-07T12:50:50;4.68;;;3.40;;
4428;SDS011;2227;47.810;8.810;2023-09-07T12:53:16;6.53;;;3.50;;
4428;SDS011;2227;47.810;8.810;2023-09-07T12:55:43;5.95;;;3.10;;
4428;SDS011;2227;47.810;8.810;2023-09-07T12:58:10;5.22;;;3.55;;
4428;SDS011;2227;47.810;8.810;2023-09-07T13:00:38;4.97;;;2.90;;
4428;SDS011;2227;47.810;8.810;2023-09-07T13:03:05;3.97;;;3.20;;
4428;SDS011;2227;47.810;8.810;2023-09-07T13:05:32;4.25;;;3.58;;
4428;SDS011;2227;47.810;8.810;2023-09-07T13:07:59;5.40;;;3.60;;
4428;SDS011;2227;47.810;8.810;2023-09-07T13:10:28;5.43;;;2.90;;
4428;SDS011;2227;47.810;8.810;2023-09-07T13:12:55;4.75;;;3.20;;
4428;SDS011;2227;47.810;8.810;2023-09-07T13:15:22;4.93;;;3.75;;
4428;SDS011;2227;47.810;8.810;2023-09-07T13:17:49;4.13;;;3.10;;
4428;SDS011;2227;47.810;8.810;2023-09-07T13:20:15;5.32;;;3.28;;
4428;SDS011;2227;47.810;8.810;2023-09-07T13:22:42;5.35;;;3.75;;
4428;SDS011;2227;47.810;8.810;2023-09-07T13:25:09;5.85;;;3.10;;
4428;SDS011;2227;47.810;8.810;2023-09-07T13:27:36;4.60;;;3.08;;
4428;SDS011;2227;47.810;8.810;2023-09-07T13:30:03;4.85;;;3.15;;
4428;SDS011;2227;47.810;8.810;2023-09-07T13:32:31;4.95;;;3.40;;
4428;SDS011;2227;47.810;8.810;2023-09-07T13:34:58;5.13;;;3.10;;
4428;SDS011;2227;47.810;8.810;2023-09-07T13:37:26;4.53;;;3.30;;
4428;SDS011;2227;47.810;8.810;2023-09-07T13:39:52;4.72;;;3.00;;
4428;SDS011;2227;47.810;8.810;2023-09-07T13:42:19;4.65;;;2.85;;
4428;SDS011;2227;47.810;8.810;2023-09-07T13:44:46;4.63;;;3.20;;
4428;SDS011;2227;47.810;8.810;2023-09-07T13:47:13;3.63;;;3.00;;
4428;SDS011;2227;47.810;8.810;2023-09-07T13:49:40;4.40;;;3.20;;
4428;SDS011;2227;47.810;8.810;2023-09-07T13:52:06;4.53;;;3.78;;
4428;SDS011;2227;47.810;8.810;2023-09-07T13:54:33;3.80;;;3.03;;
4428;SDS011;2227;47.810;8.810;2023-09-07T13:57:00;4.85;;;3.17;;
4428;SDS011;2227;47.810;8.810;2023-09-07T13:59:27;7.10;;;2.80;;
4428;SDS011;2227;47.810;8.810;2023-09-07T14:01:58;3.87;;;2.77;;
4428;SDS011;2227;47.810;8.810;2023-09-07T14:04:25;4.03;;;3.10;;
4428;SDS011;2227;47.810;8.810;2023-09-07T14:06:52;4.50;;;3.05;;
4428;SDS011;2227;47.810;8.810;2023-09-07T14:09:19;5.07;;;3.28;;
4428;SDS011;2227;47.810;8.810;2023-09-07T14:11:49;4.78;;;3.40;;
4428;SDS011;2227;47.810;8.810;2023-09-07T14:14:16;4.50;;;3.55;;
4428;SDS011;2227;47.810;8.810;2023-09-07T14:16:44;4.75;;;2.95;;
4428;SDS011;2227;47.810;8.810;2023-09-07T14:19:11;4.47;;;3.08;;
4428;SDS011;2227;47.810;8.810;2023-09-07T14:21:38;4.88;;;3.17;;
4428;SDS011;2227;47.810;8.810;2023-09-07T14:24:04;4.47;;;3.45;;
4428;SDS011;2227;47.810;8.810;2023-09-07T14:26:31;5.20;;;3.70;;
4428;SDS011;2227;47.810;8.810;2023-09-07T14:28:58;5.53;;;3.78;;
4428;SDS011;2227;47.810;8.810;2023-09-07T14:31:25;4.97;;;3.30;;
4428;SDS011;2227;47.810;8.810;2023-09-07T14:33:52;3.70;;;3.03;;
4428;SDS011;2227;47.810;8.810;2023-09-07T14:36:18;4.30;;;3.22;;
4428;SDS011;2227;47.810;8.810;2023-09-07T14:38:45;5.53;;;3.17;;
4428;SDS011;2227;47.810;8.810;2023-09-07T14:41:12;4.82;;;3.05;;
4428;SDS011;2227;47.810;8.810;2023-09-07T14:43:46;4.57;;;3.22;;
4428;SDS011;2227;47.810;8.810;2023-09-07T14:46:13;5.15;;;3.40;;
4428;SDS011;2227;47.810;8.810;2023-09-07T14:48:41;4.57;;;3.40;;
4428;SDS011;2227;47.810;8.810;2023-09-07T14:51:09;5.60;;;3.25;;
4428;SDS011;2227;47.810;8.810;2023-09-07T14:53:35;5.80;;;3.88;;
4428;SDS011;2227;47.810;8.810;2023-09-07T14:56:02;5.18;;;3.42;;
4428;SDS011;2227;47.810;8.810;2023-09-07T14:58:29;4.30;;;3.42;;
4428;SDS011;2227;47.810;8.810;2023-09-07T15:00:57;4.78;;;3.50;;
4428;SDS011;2227;47.810;8.810;2023-09-07T15:03:24;5.57;;;3.13;;
4428;SDS011;2227;47.810;8.810;2023-09-07T15:05:51;4.80;;;3.70;;
4428;SDS011;2227;47.810;8.810;2023-09-07T15:08:18;4.53;;;3.30;;
4428;SDS011;2227;47.810;8.810;2023-09-07T15:10:45;6.30;;;3.95;;
4428;SDS011;2227;47.810;8.810;2023-09-07T15:13:12;4.90;;;3.50;;
4428;SDS011;2227;47.810;8.810;2023-09-07T15:15:39;6.47;;;3.08;;
4428;SDS011;2227;47.810;8.810;2023-09-07T15:18:06;4.80;;;3.63;;
4428;SDS011;2227;47.810;8.810;2023-09-07T15:20:35;5.65;;;3.67;;
4428;SDS011;2227;47.810;8.810;2023-09-07T15:23:02;4.88;;;3.83;;
4428;SDS011;2227;47.810;8.810;2023-09-07T15:25:29;4.05;;;3.40;;
4428;SDS011;2227;47.810;8.810;2023-09-07T15:27:56;5.05;;;3.55;;
4428;SDS011;2227;47.810;8.810;2023-09-07T15:30:23;5.10;;;3.80;;
4428;SDS011;2227;47.810;8.810;2023-09-07T15:32:50;6.30;;;3.90;;
4428;SDS011;2227;47.810;8.810;2023-09-07T15:35:17;5.72;;;3.75;;
4428;SDS011;2227;47.810;8.810;2023-09-07T15:37:44;5.45;;;4.00;;
4428;SDS011;2227;47.810;8.810;2023-09-07T15:40:14;4.13;;;3.72;;
4428;SDS011;2227;47.810;8.810;2023-09-07T15:42:41;5.25;;;3.60;;
4428;SDS011;2227;47.810;8.810;2023-09-07T15:45:08;4.45;;;3.55;;
4428;SDS011;2227;47.810;8.810;2023-09-07T15:47:36;5.95;;;3.67;;
4428;SDS011;2227;47.810;8.810;2023-09-07T15:50:03;5.35;;;4.10;;
4428;SDS011;2227;47.810;8.810;2023-09-07T15:52:30;6.65;;;4.05;;
4428;SDS011;2227;47.810;8.810;2023-09-07T15:54:57;4.47;;;3.58;;
4428;SDS011;2227;47.810;8.810;2023-09-07T15:57:24;4.78;;;3.60;;
4428;SDS011;2227;47.810;8.810;2023-09-07T15:59:51;4.28;;;3.20;;
4428;SDS011;2227;47.810;8.810;2023-09-07T16:02:18;5.05;;;3.60;;
4428;SDS011;2227;47.810;8.810;2023-09-07T16:04:45;4.78;;;3.78;;
4428;SDS011;2227;47.810;8.810;2023-09-07T16:07:12;6.80;;;3.72;;
4428;SDS011;2227;47.810;8.810;2023-09-07T16:09:39;5.03;;;3.60;;
4428;SDS011;2227;47.810;8.810;2023-09-07T16:12:06;5.25;;;3.60;;
4428;SDS011;2227;47.810;8.810;2023-09-07T16:14:33;5.93;;;3.97;;
4428;SDS011;2227;47.810;8.810;2023-09-07T16:17:00;5.65;;;3.97;;
4428;SDS011;2227;47.810;8.810;2023-09-07T16:19:27;4.00;;;3.42;;
4428;SDS011;2227;47.810;8.810;2023-09-07T16:21:53;6.18;;;3.97;;
4428;SDS011;2227;47.810;8.810;2023-09-07T16:24:20;5.78;;;3.92;;
4428;SDS011;2227;47.810;8.810;2023-09-07T16:26:47;5.15;;;3.70;;
4428;SDS011;2227;47.810;8.810;2023-09-07T16:29:14;6.07;;;3.88;;
4428;SDS011;2227;47.810;8.810;2023-09-07T16:31:41;4.30;;;3.70;;
4428;SDS011;2227;47.810;8.810;2023-09-07T16:34:08;5.45;;;3.50;;
4428;SDS011;2227;47.810;8.810;2023-09-07T16:36:34;4.43;;;3.55;;
4428;SDS011;2227;47.810;8.810;2023-09-07T16:39:01;4.85;;;3.60;;
4428;SDS011;2227;47.810;8.810;2023-09-07T16:41:28;5.25;;;3.80;;
4428;SDS011;2227;47.810;8.810;2023-09-07T16:43:55;6.50;;;3.83;;
4428;SDS011;2227;47.810;8.810;2023-09-07T16:46:21;5.05;;;3.03;;
4428;SDS011;2227;47.810;8.810;2023-09-07T16:48:48;5.70;;;3.40;;
4428;SDS011;2227;47.810;8.810;2023-09-07T16:51:15;5.97;;;3.53;;
4428;SDS011;2227;47.810;8.810;2023-09-07T16:53:43;5.20;;;3.60;;
4428;SDS011;2227;47.810;8.810;2023-09-07T16:56:10;4.75;;;3.78;;
4428;SDS011;2227;47.810;8.810;2023-09-07T16:58:41;6.55;;;3.83;;
4428;SDS011;2227;47.810;8.810;2023-09-07T17:01:29;4.95;;;3.85;;
4428;SDS011;2227;47.810;8.810;2023-09-07T17:03:55;6.05;;;3.80;;
4428;SDS011;2227;47.810;8.810;2023-09-07T17:06:22;6.22;;;3.95;;
4428;SDS011;2227;47.810;8.810;2023-09-07T17:08:49;6.57;;;3.83;;
4428;SDS011;2227;47.810;8.810;2023-09-07T17:11:16;6.75;;;3.97;;
4428;SDS011;2227;47.810;8.810;2023-09-07T17:13:43;4.85;;;3.63;;
4428;SDS011;2227;47.810;8.810;2023-09-07T17:16:25;6.07;;;3.85;;
4428;SDS011;2227;47.810;8.810;2023-09-07T17:18:52;5.60;;;4.72;;
4428;SDS011;2227;47.810;8.810;2023-09-07T17:21:19;5.57;;;4.22;;
4428;SDS011;2227;47.810;8.810;2023-09-07T17:23:45;5.93;;;3.90;;
4428;SDS011;2227;47.810;8.810;2023-09-07T17:26:12;6.43;;;4.10;;
4428;SDS011;2227;47.810;8.810;2023-09-07T17:28:39;5.63;;;4.50;;
4428;SDS011;2227;47.810;8.810;2023-09-07T17:31:12;4.90;;;4.25;;
4428;SDS011;2227;47.810;8.810;2023-09-07T17:33:39;6.32;;;4.10;;
4428;SDS011;2227;47.810;8.810;2023-09-07T17:36:12;5.90;;;4.30;;
4428;SDS011;2227;47.810;8.810;2023-09-07T17:38:44;5.25;;;4.07;;
4428;SDS011;2227;47.810;8.810;2023-09-07T17:41:11;6.97;;;4.40;;
4428;SDS011;2227;47.810;8.810;2023-09-07T17:43:38;6.03;;;4.38;;
4428;SDS011;2227;47.810;8.810;2023-09-07T17:46:06;5.20;;;4.13;;
4428;SDS011;2227;47.810;8.810;2023-09-07T17:48:34;5.72;;;4.53;;
4428;SDS011;2227;47.810;8.810;2023-09-07T17:51:01;6.50;;;4.68;;
4428;SDS011;2227;47.810;8.810;2023-09-07T17:53:29;5.90;;;4.95;;
4428;SDS011;2227;47.810;8.810;2023-09-07T17:55:55;6.65;;;5.05;;
4428;SDS011;2227;47.810;8.810;2023-09-07T17:58:22;9.30;;;5.32;;
4428;SDS011;2227;47.810;8.810;2023-09-07T18:00:49;6.82;;;4.40;;
4428;SDS011;2227;47.810;8.810;2023-09-07T18:03:16;6.63;;;4.53;;
4428;SDS011;2227;47.810;8.810;2023-09-07T18:05:43;9.40;;;4.75;;
4428;SDS011;2227;47.810;8.810;2023-09-07T18:08:09;6.25;;;4.75;;
4428;SDS011;2227;47.810;8.810;2023-09-07T18:10:36;6.63;;;5.22;;
4428;SDS011;2227;47.810;8.810;2023-09-07T18:13:03;6.50;;;4.97;;
4428;SDS011;2227;47.810;8.810;2023-09-07T18:15:30;5.90;;;4.70;;
4428;SDS011;2227;47.810;8.810;2023-09-07T18:17:57;5.45;;;4.90;;
4428;SDS011;2227;47.810;8.810;2023-09-07T18:20:24;7.30;;;4.60;;
4428;SDS011;2227;47.810;8.810;2023-09-07T18:22:52;6.95;;;5.22;;
4428;SDS011;2227;47.810;8.810;2023-09-07T18:25:19;7.13;;;5.07;;
4428;SDS011;2227;47.810;8.810;2023-09-07T18:27:46;6.38;;;5.25;;
4428;SDS011;2227;47.810;8.810;2023-09-07T18:30:15;6.97;;;4.50;;
4428;SDS011;2227;47.810;8.810;2023-09-07T18:32:42;6.68;;;5.25;;
4428;SDS011;2227;47.810;8.810;2023-09-07T18:35:08;7.18;;;5.00;;
4428;SDS011;2227;47.810;8.810;2023-09-07T18:37:35;6.38;;;5.03;;
4428;SDS011;2227;47.810;8.810;2023-09-07T18:40:04;6.38;;;5.00;;
4428;SDS011;2227;47.810;8.810;2023-09-07T18:42:35;5.90;;;5.13;;
4428;SDS011;2227;47.810;8.810;2023-09-07T18:45:02;6.18;;;5.13;;
4428;SDS011;2227;47.810;8.810;2023-09-07T18:47:29;6.40;;;5.22;;
4428;SDS011;2227;47.810;8.810;2023-09-07T18:49:58;6.93;;;6.00;;
4428;SDS011;2227;47.810;8.810;2023-09-07T18:52:25;6.63;;;5.63;;
4428;SDS011;2227;47.810;8.810;2023-09-07T18:54:51;6.05;;;5.30;;
4428;SDS011;2227;47.810;8.810;2023-09-07T18:57:21;7.00;;;5.20;;
4428;SDS011;2227;47.810;8.810;2023-09-07T18:59:48;9.50;;;5.25;;
4428;SDS011;2227;47.810;8.810;2023-09-07T19:02:16;7.90;;;5.32;;
4428;SDS011;2227;47.810;8.810;2023-09-07T19:04:42;5.80;;;5.20;;
4428;SDS011;2227;47.810;8.810;2023-09-07T19:07:09;6.53;;;5.10;;
4428;SDS011;2227;47.810;8.810;2023-09-07T19:09:38;7.05;;;5.38;;
4428;SDS011;2227;47.810;8.810;2023-09-07T19:12:05;6.65;;;5.95;;